createdAt,value
2022-09-06T00:02:21.988Z,21.72
2022-09-06T00:04:49.722Z,21.59
2022-09-06T00:07:17.099Z,21.75
2022-09-06T00:09:44.340Z,21.77
2022-09-06T00:12:11.871Z,21.55
2022-09-06T00:14:39.120Z,21.64
2022-09-06T00:17:06.290Z,21.57
2022-09-06T00:19:33.778Z,21.54
2022-09-06T00:22:00.939Z,21.44
2022-09-06T00:24:28.162Z,21.37
2022-09-06T00:26:58.792Z,21.34
2022-09-06T00:29:26.047Z,21.31
2022-09-06T00:31:53.504Z,21.29
2022-09-06T00:34:20.992Z,21.19
2022-09-06T00:36:48.244Z,21.32
2022-09-06T00:39:15.489Z,21.09
2022-09-06T00:41:42.973Z,21.27
2022-09-06T00:44:10.195Z,21.23
2022-09-06T00:46:37.709Z,21.21
2022-09-06T00:49:06.115Z,21.02
2022-09-06T00:51:34.421Z,21.09
2022-09-06T00:54:05.565Z,21.11
2022-09-06T00:56:33.595Z,20.87
2022-09-06T00:59:01.519Z,21.09
2022-09-06T01:01:28.869Z,20.80
2022-09-06T01:03:56.360Z,20.89
2022-09-06T01:06:24.961Z,21.14
2022-09-06T01:08:58.630Z,20.86
2022-09-06T01:11:32.138Z,21.06
2022-09-06T01:14:02.058Z,20.84
2022-09-06T01:16:39.680Z,20.76
2022-09-06T01:19:06.801Z,20.63
2022-09-06T01:21:37.017Z,20.82
2022-09-06T01:24:25.384Z,20.57
2022-09-06T01:26:53.116Z,20.57
2022-09-06T01:29:29.107Z,20.97
2022-09-06T01:32:03.578Z,20.82
2022-09-06T01:34:32.765Z,20.65
2022-09-06T01:37:10.205Z,20.51
2022-09-06T01:39:38.188Z,20.61
2022-09-06T01:42:07.319Z,20.60
2022-09-06T01:44:34.480Z,20.29
2022-09-06T01:47:01.774Z,20.32
2022-09-06T01:49:47.699Z,20.51
2022-09-06T01:52:17.533Z,20.60
2022-09-06T01:55:08.293Z,20.44
2022-09-06T01:57:35.451Z,20.42
2022-09-06T02:00:09.913Z,20.43
2022-09-06T02:02:59.616Z,20.49
2022-09-06T02:05:36.667Z,20.38
2022-09-06T02:08:06.783Z,20.62
2022-09-06T02:10:36.811Z,20.18
2022-09-06T02:13:04.681Z,20.23
2022-09-06T02:15:35.905Z,20.21
2022-09-06T02:18:08.616Z,20.05
2022-09-06T02:20:36.959Z,20.28
2022-09-06T02:23:05.584Z,20.14
2022-09-06T02:25:34.614Z,20.19
2022-09-06T02:28:01.894Z,20.19
2022-09-06T02:30:29.350Z,20.19
2022-09-06T02:32:58.157Z,20.14
2022-09-06T02:35:25.594Z,19.86
2022-09-06T02:37:53.077Z,20.12
2022-09-06T02:40:20.264Z,20.07
2022-09-06T02:42:47.434Z,19.71
2022-09-06T02:45:15.311Z,20.00
2022-09-06T02:47:42.519Z,19.84
2022-09-06T02:50:09.869Z,20.04
2022-09-06T02:52:37.389Z,20.14
2022-09-06T02:55:04.825Z,19.94
2022-09-06T02:57:32.019Z,19.92
2022-09-06T02:59:59.452Z,20.03
2022-09-06T03:02:26.715Z,20.01
2022-09-06T03:04:53.946Z,19.81
2022-09-06T03:07:21.426Z,19.85
2022-09-06T03:09:48.657Z,19.76
2022-09-06T03:12:15.858Z,19.76
2022-09-06T03:14:44.324Z,19.80
2022-09-06T03:17:11.597Z,19.68
2022-09-06T03:19:38.795Z,19.70
2022-09-06T03:22:06.232Z,19.92
2022-09-06T03:24:33.693Z,19.69
2022-09-06T03:27:01.025Z,19.82
2022-09-06T03:29:28.495Z,19.95
2022-09-06T03:31:55.713Z,19.77
2022-09-06T03:34:22.908Z,19.78
2022-09-06T03:36:50.391Z,19.63
2022-09-06T03:39:17.681Z,19.79
2022-09-06T03:41:44.885Z,19.76
2022-09-06T03:44:12.328Z,19.87
2022-09-06T03:46:39.668Z,19.57
2022-09-06T03:49:08.147Z,19.49
2022-09-06T03:51:35.863Z,19.49
2022-09-06T03:54:03.043Z,19.43
2022-09-06T03:56:30.209Z,19.22
2022-09-06T03:58:57.687Z,19.17
2022-09-06T04:01:25.228Z,19.36
2022-09-06T04:03:52.715Z,19.39
2022-09-06T04:06:20.022Z,19.60
2022-09-06T04:08:47.176Z,19.51
2022-09-06T04:11:16.036Z,19.46
2022-09-06T04:13:44.624Z,19.37
2022-09-06T04:16:11.925Z,19.48
2022-09-06T04:18:39.772Z,19.52
2022-09-06T04:21:06.957Z,19.22
2022-09-06T04:23:37.754Z,19.09
2022-09-06T04:26:07.332Z,19.43
2022-09-06T04:28:34.515Z,19.53
2022-09-06T04:31:04.966Z,19.37
2022-09-06T04:33:33.605Z,19.28
2022-09-06T04:36:01.201Z,19.25
2022-09-06T04:38:29.278Z,19.27
2022-09-06T04:40:56.864Z,19.22
2022-09-06T04:43:24.473Z,19.39
2022-09-06T04:45:51.820Z,19.18
2022-09-06T04:48:19.397Z,19.46
2022-09-06T04:50:46.613Z,19.41
2022-09-06T04:53:13.781Z,19.37
2022-09-06T04:55:41.301Z,19.42
2022-09-06T04:58:08.473Z,19.47
2022-09-06T05:00:36.468Z,19.47
2022-09-06T05:03:03.935Z,19.51
2022-09-06T05:05:31.109Z,19.55
2022-09-06T05:07:58.461Z,19.57
2022-09-06T05:10:26.074Z,19.66
2022-09-06T05:12:53.894Z,19.59
2022-09-06T05:15:21.547Z,19.52
2022-09-06T05:17:49.008Z,19.36
2022-09-06T05:20:16.250Z,19.60
2022-09-06T05:22:43.457Z,19.39
2022-09-06T05:25:10.943Z,19.59
2022-09-06T05:27:38.182Z,19.61
2022-09-06T05:30:05.494Z,19.80
2022-09-06T05:32:32.927Z,19.84
2022-09-06T05:35:00.102Z,20.02
2022-09-06T05:37:27.597Z,19.97
2022-09-06T05:39:55.116Z,20.14
2022-09-06T05:42:22.897Z,20.21
2022-09-06T05:44:50.394Z,20.36
2022-09-06T05:47:18.501Z,20.39
2022-09-06T05:49:46.312Z,20.45
2022-09-06T05:52:14.505Z,20.45
2022-09-06T05:54:42.005Z,20.55
2022-09-06T05:57:09.445Z,20.55
2022-09-06T05:59:36.877Z,20.60
2022-09-06T06:02:07.364Z,20.61
2022-09-06T06:04:35.171Z,21.07
2022-09-06T06:07:02.393Z,20.99
2022-09-06T06:09:29.550Z,21.05
2022-09-06T06:11:56.995Z,21.14
2022-09-06T06:14:24.182Z,21.17
2022-09-06T06:16:52.030Z,21.21
2022-09-06T06:19:19.652Z,21.32
2022-09-06T06:21:46.866Z,21.41
2022-09-06T06:24:14.058Z,21.44
2022-09-06T06:26:41.517Z,21.49
2022-09-06T06:29:09.738Z,21.49
2022-09-06T06:31:38.016Z,21.68
2022-09-06T06:34:05.836Z,21.89
2022-09-06T06:36:33.975Z,21.39
2022-09-06T06:39:01.872Z,21.83
2022-09-06T06:41:30.259Z,21.88
2022-09-06T06:43:58.676Z,22.00
2022-09-06T06:46:30.076Z,22.11
2022-09-06T06:48:57.559Z,22.32
2022-09-06T06:51:25.592Z,22.26
2022-09-06T06:53:52.851Z,22.46
2022-09-06T06:56:21.187Z,22.78
2022-09-06T06:58:49.127Z,23.06
2022-09-06T07:01:16.954Z,23.32
2022-09-06T07:03:45.032Z,23.67
2022-09-06T07:06:12.953Z,24.03
2022-09-06T07:08:40.723Z,24.32
2022-09-06T07:11:10.034Z,24.50
2022-09-06T07:13:38.037Z,24.93
2022-09-06T07:16:15.676Z,25.31
2022-09-06T07:18:43.446Z,25.47
2022-09-06T07:26:31.749Z,26.30
2022-09-06T07:29:00.039Z,26.34
2022-09-06T07:34:15.350Z,26.79
2022-09-06T07:36:42.835Z,26.94
2022-09-06T07:39:10.083Z,26.84
2022-09-06T07:41:37.353Z,27.40
2022-09-06T07:44:05.030Z,27.21
2022-09-06T07:46:32.245Z,27.52
2022-09-06T07:48:59.469Z,27.42
2022-09-06T07:51:26.918Z,27.36
2022-09-06T07:54:12.922Z,27.16
2022-09-06T07:56:43.358Z,26.93
2022-09-06T07:59:10.535Z,27.05
2022-09-06T08:01:38.427Z,27.12
2022-09-06T08:04:08.630Z,26.88
2022-09-06T08:09:25.163Z,27.10
2022-09-06T08:11:55.819Z,27.01
2022-09-06T08:14:23.162Z,27.08
2022-09-06T08:16:50.665Z,27.31
2022-09-06T08:19:18.576Z,26.93
2022-09-06T08:21:45.796Z,26.90
2022-09-06T08:24:13.402Z,27.23
2022-09-06T08:26:42.403Z,27.64
2022-09-06T08:29:10.110Z,27.59
2022-09-06T08:31:38.949Z,27.86
2022-09-06T08:34:06.375Z,27.57
2022-09-06T08:36:33.538Z,28.29
2022-09-06T08:39:01.682Z,28.27
2022-09-06T08:41:41.320Z,28.61
2022-09-06T08:47:16.858Z,29.02
2022-09-06T08:50:07.308Z,28.77
2022-09-06T08:52:41.784Z,28.76
2022-09-06T08:55:15.781Z,28.79
2022-09-06T08:58:21.719Z,28.46
2022-09-06T09:00:50.985Z,28.89
2022-09-06T09:03:19.205Z,28.78
2022-09-06T09:05:50.313Z,29.36
2022-09-06T09:08:27.242Z,29.12
2022-09-06T09:11:00.478Z,29.18
2022-09-06T09:13:33.192Z,29.41
2022-09-06T09:16:00.536Z,29.29
2022-09-06T09:18:28.873Z,29.43
2022-09-06T09:20:56.173Z,29.54
2022-09-06T09:23:23.413Z,29.73
2022-09-06T09:25:52.757Z,29.72
2022-09-06T09:28:20.532Z,29.81
2022-09-06T09:30:50.060Z,29.93
2022-09-06T09:33:38.772Z,29.89
2022-09-06T09:36:10.471Z,29.68
2022-09-06T09:38:49.250Z,29.99
2022-09-06T09:41:29.097Z,29.89
2022-09-06T09:44:01.075Z,29.82
2022-09-06T09:46:34.918Z,30.10
2022-09-06T09:49:04.081Z,30.11
2022-09-06T09:51:32.278Z,30.03
2022-09-06T09:54:00.601Z,29.95
2022-09-06T09:56:33.650Z,30.08
2022-09-06T09:59:00.837Z,30.70
2022-09-06T10:01:31.679Z,30.46
2022-09-06T10:09:40.252Z,30.50
2022-09-06T10:12:07.570Z,30.63
2022-09-06T10:14:42.178Z,30.52
2022-09-06T10:17:09.382Z,30.75
2022-09-06T10:19:37.453Z,30.86
2022-09-06T10:22:12.625Z,30.89
2022-09-06T10:24:42.842Z,30.98
2022-09-06T10:27:10.029Z,30.83
2022-09-06T10:29:56.168Z,31.14
2022-09-06T10:32:31.148Z,31.04
2022-09-06T10:35:13.731Z,30.57
2022-09-06T10:37:50.041Z,31.10
2022-09-06T10:40:21.367Z,31.17
2022-09-06T10:42:50.448Z,31.26
2022-09-06T10:45:20.589Z,31.41
2022-09-06T10:48:04.745Z,31.56
2022-09-06T10:50:35.374Z,31.64
2022-09-06T10:53:06.667Z,31.73
2022-09-06T10:55:35.200Z,31.69
2022-09-06T10:58:20.719Z,31.56
2022-09-06T11:01:07.732Z,31.41
2022-09-06T11:06:25.523Z,31.81
2022-09-06T11:09:13.920Z,32.07
2022-09-06T11:11:51.689Z,31.94
2022-09-06T11:14:18.855Z,31.75
2022-09-06T11:16:54.033Z,31.23
2022-09-06T11:19:22.628Z,31.16
2022-09-06T11:21:54.321Z,31.42
2022-09-06T11:24:21.465Z,31.95
2022-09-06T11:27:21.188Z,31.88
2022-09-06T11:29:52.048Z,31.73
2022-09-06T11:32:25.473Z,31.59
2022-09-06T11:34:56.806Z,31.16
2022-09-06T11:37:34.104Z,30.91
2022-09-06T11:40:30.387Z,31.30
2022-09-06T11:42:59.417Z,31.25
2022-09-06T11:45:46.167Z,31.34
2022-09-06T11:48:35.468Z,31.02
2022-09-06T11:51:02.971Z,31.40
2022-09-06T11:53:50.353Z,31.11
2022-09-06T11:56:44.056Z,31.09
2022-09-06T11:59:20.466Z,30.59
2022-09-06T12:01:53.996Z,31.21
2022-09-06T12:04:21.898Z,31.19
2022-09-06T12:07:08.585Z,31.23
2022-09-06T12:09:36.879Z,31.26
2022-09-06T12:12:04.282Z,31.38
2022-09-06T12:14:34.581Z,31.56
2022-09-06T12:17:04.747Z,31.49
2022-09-06T12:19:44.396Z,31.44
2022-09-06T12:22:27.616Z,31.73
2022-09-06T12:24:55.859Z,31.46
2022-09-06T12:27:24.169Z,31.30
2022-09-06T12:29:55.075Z,31.60
2022-09-06T12:32:24.419Z,31.40
2022-09-06T12:37:49.567Z,31.26
2022-09-06T12:40:18.707Z,31.63
2022-09-06T12:42:47.329Z,31.52
2022-09-06T12:45:14.491Z,31.06
2022-09-06T12:47:41.722Z,31.30
2022-09-06T12:50:15.126Z,30.67
2022-09-06T12:52:55.877Z,31.39
2022-09-06T12:55:27.807Z,31.34
2022-09-06T12:57:56.420Z,31.19
2022-09-06T13:00:24.782Z,31.22
2022-09-06T13:02:57.583Z,31.24
2022-09-06T13:05:25.220Z,31.12
2022-09-06T13:07:54.309Z,30.79
2022-09-06T13:10:22.533Z,31.31
2022-09-06T13:12:50.880Z,31.03
2022-09-06T13:15:19.669Z,31.18
2022-09-06T13:17:47.305Z,30.92
2022-09-06T13:20:16.018Z,30.39
2022-09-06T13:22:47.443Z,30.72
2022-09-06T13:25:33.593Z,30.74
2022-09-06T13:28:02.358Z,30.62
2022-09-06T13:30:32.925Z,30.34
2022-09-06T13:33:00.246Z,30.35
2022-09-06T13:35:31.761Z,30.10
2022-09-06T13:38:17.994Z,30.28
2022-09-06T13:41:09.856Z,30.69
2022-09-06T13:43:40.318Z,30.74
2022-09-06T13:46:08.213Z,30.95
2022-09-06T13:48:35.967Z,30.80
2022-09-06T13:51:03.765Z,30.38
2022-09-06T13:53:31.765Z,30.31
2022-09-06T13:55:59.267Z,30.52
2022-09-06T13:58:26.527Z,30.51
2022-09-06T14:00:54.070Z,30.65
2022-09-06T14:03:22.944Z,30.43
2022-09-06T14:05:50.504Z,29.80
2022-09-06T14:08:17.676Z,29.84
2022-09-06T14:10:47.302Z,29.98
2022-09-06T14:13:15.352Z,29.27
2022-09-06T14:15:42.652Z,29.60
2022-09-06T14:18:14.235Z,29.58
2022-09-06T14:20:42.008Z,29.42
2022-09-06T14:23:09.448Z,29.37
2022-09-06T14:25:37.706Z,29.62
2022-09-06T14:28:04.940Z,29.56
2022-09-06T14:30:32.435Z,29.41
2022-09-06T14:32:59.678Z,29.35
2022-09-06T14:35:27.922Z,29.06
2022-09-06T14:37:55.673Z,29.38
2022-09-06T14:40:22.923Z,29.53
2022-09-06T14:42:50.768Z,29.60
2022-09-06T14:45:18.578Z,29.50
2022-09-06T14:47:47.376Z,29.51
2022-09-06T14:50:14.646Z,29.40
2022-09-06T14:52:42.103Z,29.38
2022-09-06T14:55:09.456Z,29.39
2022-09-06T14:57:36.626Z,29.42
2022-09-06T15:00:08.131Z,29.34
2022-09-06T15:02:35.689Z,29.41
2022-09-06T15:05:02.942Z,29.37
2022-09-06T15:07:31.385Z,29.42
2022-09-06T15:09:59.166Z,29.38
2022-09-06T15:12:26.378Z,28.92
2022-09-06T15:14:53.864Z,28.21
2022-09-06T15:17:21.264Z,27.54
2022-09-06T15:19:49.032Z,26.65
2022-09-06T15:22:16.512Z,26.71
2022-09-06T15:24:43.776Z,26.06
2022-09-06T15:27:10.976Z,25.42
2022-09-06T15:29:38.980Z,25.96
2022-09-06T15:32:07.321Z,26.04
2022-09-06T15:34:35.514Z,25.94
2022-09-06T15:37:02.957Z,26.36
2022-09-06T15:39:30.179Z,26.40
2022-09-06T15:41:58.716Z,26.56
2022-09-06T15:44:26.634Z,26.51
2022-09-06T15:46:54.833Z,26.52
2022-09-06T15:49:28.080Z,26.36
2022-09-06T15:51:57.115Z,26.17
2022-09-06T15:54:44.229Z,26.11
2022-09-06T15:57:12.521Z,26.21
2022-09-06T15:59:39.965Z,25.83
2022-09-06T16:02:07.745Z,25.87
2022-09-06T16:04:35.277Z,26.19
2022-09-06T16:07:02.455Z,26.25
2022-09-06T16:09:29.615Z,26.23
2022-09-06T16:11:57.681Z,26.19
2022-09-06T16:14:25.280Z,26.13
2022-09-06T16:16:54.843Z,26.06
2022-09-06T16:19:22.486Z,26.19
2022-09-06T16:21:49.936Z,26.23
2022-09-06T16:24:18.170Z,26.20
2022-09-06T16:26:46.643Z,25.96
2022-09-06T16:29:14.530Z,25.67
2022-09-06T16:31:41.755Z,25.47
2022-09-06T16:34:09.888Z,25.54
2022-09-06T16:36:37.350Z,25.65
2022-09-06T16:39:04.696Z,25.29
2022-09-06T16:41:40.615Z,25.18
2022-09-06T16:44:08.635Z,24.92
2022-09-06T16:46:36.256Z,24.72
2022-09-06T16:49:04.591Z,24.97
2022-09-06T16:51:32.310Z,24.97
2022-09-06T16:54:00.166Z,25.09
2022-09-06T16:56:28.669Z,25.23
2022-09-06T16:58:56.899Z,25.30
2022-09-06T17:01:25.062Z,25.14
2022-09-06T17:03:52.466Z,25.27
2022-09-06T17:06:20.385Z,25.05
2022-09-06T17:08:47.905Z,25.10
2022-09-06T17:11:20.149Z,25.19
2022-09-06T17:13:48.309Z,25.21
2022-09-06T17:16:34.342Z,25.27
2022-09-06T17:19:02.382Z,25.23
2022-09-06T17:21:29.798Z,25.07
2022-09-06T17:24:03.805Z,25.00
2022-09-06T17:26:31.745Z,25.15
2022-09-06T17:28:59.243Z,24.90
2022-09-06T17:31:26.557Z,25.16
2022-09-06T17:33:54.217Z,25.10
2022-09-06T17:36:23.833Z,25.01
2022-09-06T17:38:53.725Z,25.06
2022-09-06T17:41:21.680Z,25.09
2022-09-06T17:43:49.151Z,24.93
2022-09-06T17:46:16.647Z,24.85
2022-09-06T17:48:44.289Z,24.67
2022-09-06T17:51:11.664Z,24.82
2022-09-06T17:53:39.026Z,24.94
2022-09-06T17:56:09.469Z,24.98
2022-09-06T17:58:37.430Z,24.93
2022-09-06T18:01:14.326Z,24.81
2022-09-06T18:03:42.862Z,24.84
2022-09-06T18:06:11.224Z,24.70
2022-09-06T18:08:39.815Z,24.75
2022-09-06T18:11:11.480Z,24.86
2022-09-06T18:13:39.147Z,24.74
2022-09-06T18:16:06.936Z,24.62
2022-09-06T18:18:34.666Z,24.73
2022-09-06T18:21:03.106Z,24.64
2022-09-06T18:23:32.200Z,24.43
2022-09-06T18:26:00.622Z,24.35
2022-09-06T18:28:28.600Z,24.34
2022-09-06T18:31:15.944Z,24.44
2022-09-06T18:33:43.530Z,24.40
2022-09-06T18:36:13.648Z,24.16
2022-09-06T18:38:45.494Z,24.40
2022-09-06T18:41:33.930Z,24.72
2022-09-06T18:44:03.212Z,24.66
2022-09-06T18:46:31.253Z,24.33
2022-09-06T18:48:58.926Z,24.51
2022-09-06T18:51:26.661Z,24.68
2022-09-06T18:53:55.956Z,24.13
2022-09-06T18:56:24.490Z,24.19
2022-09-06T18:58:59.267Z,23.99
2022-09-06T19:01:29.478Z,24.17
2022-09-06T19:03:57.833Z,23.89
2022-09-06T19:06:25.827Z,24.09
2022-09-06T19:08:54.303Z,24.09
2022-09-06T19:11:22.140Z,24.05
2022-09-06T19:13:50.806Z,23.99
2022-09-06T19:16:19.250Z,23.77
2022-09-06T19:18:47.039Z,24.02
2022-09-06T19:21:15.777Z,23.75
2022-09-06T19:23:45.443Z,23.58
2022-09-06T19:26:20.232Z,23.65
2022-09-06T19:28:55.786Z,23.66
2022-09-06T19:31:25.400Z,23.79
2022-09-06T19:33:53.876Z,23.84
2022-09-06T19:36:21.689Z,23.78
2022-09-06T19:39:02.929Z,23.69
2022-09-06T19:41:32.365Z,23.76
2022-09-06T19:44:00.500Z,23.89
2022-09-06T19:46:28.309Z,23.77
2022-09-06T19:48:56.523Z,23.65
2022-09-06T19:51:24.863Z,23.73
2022-09-06T19:53:53.527Z,23.46
2022-09-06T19:56:23.634Z,23.59
2022-09-06T19:58:55.577Z,23.66
2022-09-06T20:01:24.007Z,23.42
2022-09-06T20:03:52.343Z,23.40
2022-09-06T20:06:19.743Z,23.55
2022-09-06T20:08:49.867Z,23.61
2022-09-06T20:11:19.006Z,23.55
2022-09-06T20:13:47.817Z,23.44
2022-09-06T20:16:16.518Z,23.43
2022-09-06T20:18:44.598Z,23.39
2022-09-06T20:21:14.209Z,23.48
2022-09-06T20:23:41.733Z,23.49
2022-09-06T20:26:10.570Z,23.46
2022-09-06T20:28:38.239Z,23.38
2022-09-06T20:31:06.507Z,23.31
2022-09-06T20:33:34.536Z,23.30
2022-09-06T20:36:03.398Z,23.04
2022-09-06T20:38:31.880Z,23.08
2022-09-06T20:41:03.794Z,23.00
2022-09-06T20:43:36.796Z,23.03
2022-09-06T20:46:05.936Z,22.78
2022-09-06T20:48:33.852Z,22.88
2022-09-06T20:51:02.183Z,22.76
2022-09-06T20:53:30.181Z,22.89
2022-09-06T20:55:58.474Z,22.86
2022-09-06T20:58:26.721Z,22.95
2022-09-06T21:00:54.719Z,22.79
2022-09-06T21:03:22.121Z,22.68
2022-09-06T21:05:49.457Z,22.84
2022-09-06T21:08:17.373Z,22.54
2022-09-06T21:10:44.598Z,22.77
2022-09-06T21:13:12.089Z,22.58
2022-09-06T21:15:41.087Z,22.73
2022-09-06T21:18:08.761Z,22.69
2022-09-06T21:20:36.061Z,22.72
2022-09-06T21:23:03.584Z,22.71
2022-09-06T21:25:31.204Z,22.83
2022-09-06T21:27:58.431Z,22.77
2022-09-06T21:30:25.952Z,22.82
2022-09-06T21:32:53.715Z,22.73
2022-09-06T21:35:20.884Z,22.51
2022-09-06T21:37:48.519Z,22.52
2022-09-06T21:40:19.060Z,22.74
2022-09-06T21:42:46.314Z,22.86
2022-09-06T21:45:13.789Z,22.83
2022-09-06T21:47:41.418Z,22.65
2022-09-06T21:50:08.849Z,22.63
2022-09-06T21:52:36.770Z,22.67
2022-09-06T21:55:04.418Z,22.52
2022-09-06T21:57:31.596Z,22.77
2022-09-06T21:59:59.399Z,22.83
2022-09-06T22:02:28.626Z,22.89
2022-09-06T22:05:06.596Z,22.75
2022-09-06T22:07:35.826Z,22.64
2022-09-06T22:10:03.126Z,22.69
2022-09-06T22:12:30.568Z,22.50
2022-09-06T22:14:57.786Z,22.50
2022-09-06T22:17:24.967Z,22.27
2022-09-06T22:19:52.410Z,22.38
2022-09-06T22:22:20.318Z,22.46
2022-09-06T22:24:47.540Z,22.58
2022-09-06T22:27:14.953Z,22.49
2022-09-06T22:29:44.212Z,22.24
2022-09-06T22:32:11.415Z,22.46
2022-09-06T22:34:39.340Z,22.25
2022-09-06T22:37:06.552Z,22.12
2022-09-06T22:39:33.765Z,22.36
2022-09-06T22:42:01.852Z,22.44
2022-09-06T22:44:29.194Z,22.41
2022-09-06T22:46:56.551Z,22.28
2022-09-06T22:49:24.279Z,22.16
2022-09-06T22:51:52.396Z,22.34
2022-09-06T22:54:19.788Z,22.05
2022-09-06T22:56:47.238Z,22.23
2022-09-06T22:59:14.439Z,22.30
2022-09-06T23:01:42.324Z,21.97
2022-09-06T23:04:10.084Z,22.21
2022-09-06T23:06:37.364Z,22.13
2022-09-06T23:09:04.604Z,22.17
2022-09-06T23:11:32.635Z,21.90
2022-09-06T23:14:00.343Z,22.24
2022-09-06T23:16:29.060Z,22.20
2022-09-06T23:18:57.222Z,22.14
2022-09-06T23:21:25.159Z,22.00
2022-09-06T23:23:53.013Z,21.94
2022-09-06T23:26:21.657Z,21.80
2022-09-06T23:28:56.608Z,21.81
2022-09-06T23:31:25.579Z,22.04
2022-09-06T23:33:53.536Z,21.82
2022-09-06T23:36:21.246Z,21.73
2022-09-06T23:38:49.672Z,21.88
2022-09-06T23:41:17.203Z,22.04
2022-09-06T23:43:44.593Z,21.90
2022-09-06T23:46:12.642Z,21.76
2022-09-06T23:48:39.933Z,21.74
2022-09-06T23:51:07.262Z,21.70
2022-09-06T23:53:35.148Z,21.73
2022-09-06T23:56:02.564Z,21.48
2022-09-06T23:58:30.374Z,21.61
